Stockett, Montana
Current Conditions -  °F | °C
As of 12:56 AM on Saturday 20 Dec 2014 (Local Time) from KGFA Reporting Station
Scattered Clouds Scattered Clouds  
Wind Chill: 27°   Ceiling: Unl
Heat Index: 37°   Visibility: 10mi
Dew Point: 27°   Wind: 20mph
Humidity: 66%   Direction: 220°SW
Pressure: 29.87"   Gusts: NA
Location:  47.36°N, 111.17°W
Report Text: KGFA 200756Z AUTO 22017KT 10SM SCT140 03/M03 A2987 RMK AO2 SLP137 T00281030
Loading
Personal Weather Stations






























Interactive Weather Map New forecast layout! Learn more

10-Day Weather Forecast

Advertisements
Track Severe Weather on mobile